< < Back
Terminal Aerodrome Forecast


Current Version              Previous Versions:   1  2  3  4  5  6  7  8  9  

Terminal Aerodrome Forecast

880
FTUS42 KGSP 101439 AAA
TAFCLT
TAF AMD
KCLT 101439Z 1015/1112 25006KT P6SM SKC
     FM101700 28010G17KT P6SM FEW060
     FM102300 30007KT P6SM FEW150
     FM110700 26004KT P6SM SKC=

Latest METAR

749
SAUS70 KWBC 110200 RRE
MTRCLT
METAR KCLT 110152Z 00000KT 10SM FEW110 BKN250 M02/M15 A3005 RMK AO2
SLP181 T10221150


USA.gov is the U.S. government's official web portal to all federal, state and local government web resources and services.